Llanfyllin, United Kingdom
Current Conditions -  °F | °C
As of 11:50 AM on Tuesday 27 Jan 2015 (Local Time) from EGOS Reporting Station
Broken Clouds Broken Clouds  
Wind Chill: 43°   Ceiling: 9000
Heat Index: 48°   Visibility: 6mi
Dew Point: 41°   Wind: 12mph
Humidity: 76%   Direction: 260°W
Pressure: 30.3"   Gusts: NA
Location:  52.77°N, 3.27°W
Report Text: EGOS 271150Z 26010KT 9999 FEW022 SCT029 BKN090 09/05 Q1026 BLU NOSIG
Loading
Personal Weather Stations






























Interactive Weather Map New forecast layout! Learn more

10-Day Weather Forecast

Advertisements
Track Severe Weather on mobile